createdAt,value
2019-04-27T00:00:04.269Z,31.60
2019-04-27T00:02:43.500Z,32.43
2019-04-27T00:05:32.426Z,32.03
2019-04-27T00:08:19.043Z,35.30
2019-04-27T00:10:59.746Z,32.73
2019-04-27T00:13:40.457Z,33.90
2019-04-27T00:16:14.313Z,34.60
2019-04-27T00:18:58.092Z,38.43
2019-04-27T00:21:54.163Z,37.23
2019-04-27T00:24:30.552Z,34.33
2019-04-27T00:27:07.134Z,32.00
2019-04-27T00:29:43.465Z,31.33
2019-04-27T00:32:19.745Z,33.00
2019-04-27T00:34:55.995Z,35.03
2019-04-27T00:37:42.682Z,33.43
2019-04-27T00:40:23.454Z,28.47
2019-04-27T00:42:59.843Z,26.83
2019-04-27T00:45:36.265Z,32.33
2019-04-27T00:48:13.453Z,31.60
2019-04-27T00:50:49.720Z,32.50
2019-04-27T00:53:25.898Z,35.00
2019-04-27T00:56:04.025Z,31.87
2019-04-27T00:58:46.322Z,33.33
2019-04-27T01:01:24.209Z,33.43
2019-04-27T01:04:08.241Z,37.67
2019-04-27T01:06:44.398Z,34.30
2019-04-27T01:09:21.216Z,34.90
2019-04-27T01:11:57.370Z,34.13
2019-04-27T01:14:34.235Z,36.40
2019-04-27T01:17:10.579Z,38.63
2019-04-27T01:19:46.782Z,40.87
2019-04-27T01:22:23.032Z,39.33
2019-04-27T01:24:59.465Z,37.20
2019-04-27T01:27:55.548Z,35.90
2019-04-27T01:30:33.346Z,35.80
2019-04-27T01:33:09.845Z,35.87
2019-04-27T01:35:46.115Z,39.83
2019-04-27T01:38:22.393Z,39.60
2019-04-27T01:41:00.545Z,37.17
2019-04-27T01:43:36.348Z,39.60
2019-04-27T01:46:12.569Z,37.47
2019-04-27T01:48:49.095Z,37.67
2019-04-27T01:51:25.367Z,37.10
2019-04-27T01:54:01.626Z,35.50
2019-04-27T01:56:39.325Z,34.33
2019-04-27T01:59:15.712Z,34.30
2019-04-27T02:01:56.295Z,36.10
2019-04-27T02:04:34.193Z,36.80
2019-04-27T02:07:11.914Z,34.40
2019-04-27T02:09:48.646Z,33.70
2019-04-27T02:12:24.988Z,32.77
2019-04-27T02:15:03.005Z,31.03
2019-04-27T02:17:39.157Z,31.63
2019-04-27T02:20:15.414Z,33.40
2019-04-27T02:22:51.708Z,33.67
2019-04-27T02:25:29.486Z,31.77
2019-04-27T02:28:07.425Z,29.33
2019-04-27T02:30:54.190Z,31.90
2019-04-27T02:33:32.105Z,29.93
2019-04-27T02:36:14.016Z,30.20
2019-04-27T02:38:46.182Z,30.63
2019-04-27T02:41:22.436Z,28.07
2019-04-27T02:44:16.971Z,30.13
2019-04-27T02:46:53.298Z,27.13
2019-04-27T02:49:30.349Z,29.20
2019-04-27T02:52:11.885Z,28.20
2019-04-27T02:54:50.285Z,26.27
2019-04-27T02:57:25.966Z,25.87
2019-04-27T03:00:02.247Z,25.37
2019-04-27T03:02:40.406Z,23.73
2019-04-27T03:05:22.513Z,22.93
2019-04-27T03:07:59.770Z,22.37
2019-04-27T03:10:36.292Z,21.83
2019-04-27T03:13:26.264Z,22.73
2019-04-27T03:16:07.090Z,21.33
2019-04-27T03:18:44.875Z,20.13
2019-04-27T03:21:23.589Z,20.73
2019-04-27T03:24:00.318Z,21.27
2019-04-27T03:26:41.829Z,21.20
2019-04-27T03:29:20.159Z,21.60
2019-04-27T03:31:56.101Z,23.10
2019-04-27T03:34:32.610Z,22.87
2019-04-27T03:37:10.338Z,23.17
2019-04-27T03:39:46.704Z,24.10
2019-04-27T03:42:23.031Z,23.70
2019-04-27T03:45:00.564Z,22.43
2019-04-27T03:47:37.105Z,25.40
2019-04-27T03:50:15.262Z,25.13
2019-04-27T03:52:59.986Z,22.63
2019-04-27T03:55:50.202Z,26.23
2019-04-27T03:58:39.338Z,23.03
2019-04-27T04:01:14.879Z,25.37
2019-04-27T04:03:51.128Z,27.07
2019-04-27T04:06:29.466Z,27.97
2019-04-27T04:09:10.152Z,27.60
2019-04-27T04:11:50.587Z,28.80
2019-04-27T04:14:26.889Z,28.60
2019-04-27T04:17:04.789Z,28.67
2019-04-27T04:19:53.918Z,29.63
2019-04-27T04:22:19.926Z,27.83
2019-04-27T04:24:56.256Z,29.30
2019-04-27T04:27:32.504Z,28.20
2019-04-27T04:30:09.787Z,29.73
2019-04-27T04:32:46.715Z,27.73
2019-04-27T04:35:23.899Z,27.00
2019-04-27T04:38:00.397Z,25.63
2019-04-27T04:40:47.037Z,22.73
2019-04-27T04:43:24.934Z,22.40
2019-04-27T04:46:22.970Z,22.03
2019-04-27T04:48:57.283Z,20.30
2019-04-27T04:51:33.501Z,19.33
2019-04-27T04:54:09.768Z,19.23
2019-04-27T04:56:45.976Z,18.07
2019-04-27T04:59:22.260Z,18.63
2019-04-27T05:02:00.278Z,17.80
2019-04-27T05:04:39.044Z,19.30
2019-04-27T05:07:15.387Z,17.87
2019-04-27T05:09:53.175Z,18.97
2019-04-27T05:12:29.341Z,18.63
2019-04-27T05:15:06.340Z,17.53
2019-04-27T05:17:42.536Z,17.23
2019-04-27T05:20:26.313Z,17.57
2019-04-27T05:23:00.888Z,16.90
2019-04-27T05:25:38.882Z,15.90
2019-04-27T05:28:14.983Z,14.70
2019-04-27T05:30:52.366Z,14.73
2019-04-27T05:33:28.683Z,14.90
2019-04-27T05:36:04.852Z,13.93
2019-04-27T05:38:46.063Z,14.43
2019-04-27T05:41:18.961Z,13.90
2019-04-27T05:43:56.892Z,13.27
2019-04-27T05:46:43.631Z,13.53
2019-04-27T05:49:29.483Z,12.60
2019-04-27T05:52:08.524Z,12.50
2019-04-27T05:54:45.403Z,14.33
2019-04-27T05:57:21.690Z,12.47
2019-04-27T06:00:01.185Z,11.70
2019-04-27T06:02:35.872Z,14.17
2019-04-27T06:05:13.055Z,12.67
2019-04-27T06:07:49.339Z,12.63
2019-04-27T06:10:25.564Z,13.43
2019-04-27T06:13:01.740Z,14.43
2019-04-27T06:15:38.924Z,13.67
2019-04-27T06:18:15.289Z,14.60
2019-04-27T06:20:55.703Z,15.70
2019-04-27T06:23:29.424Z,17.77
2019-04-27T06:26:05.667Z,15.67
2019-04-27T06:28:41.932Z,16.27
2019-04-27T06:31:19.622Z,16.60
2019-04-27T06:33:55.949Z,16.37
2019-04-27T06:36:32.177Z,18.23
2019-04-27T06:39:09.756Z,15.70
2019-04-27T06:41:46.068Z,18.37
2019-04-27T06:44:22.258Z,18.33
2019-04-27T06:46:59.169Z,26.40
2019-04-27T06:49:35.554Z,23.70
2019-04-27T06:52:11.777Z,16.27
2019-04-27T06:54:48.594Z,16.57
2019-04-27T06:57:25.041Z,17.97
2019-04-27T07:00:01.215Z,16.33
2019-04-27T07:02:39.318Z,16.90
2019-04-27T07:05:16.326Z,15.97
2019-04-27T07:07:52.641Z,16.27
2019-04-27T07:10:28.902Z,16.80
2019-04-27T07:13:05.126Z,16.77
2019-04-27T07:15:41.553Z,16.47
2019-04-27T07:18:18.623Z,15.33
2019-04-27T07:20:55.040Z,15.17
2019-04-27T07:23:31.188Z,14.10
2019-04-27T07:26:07.448Z,14.23
2019-04-27T07:28:43.603Z,14.97
2019-04-27T07:31:19.779Z,14.37
2019-04-27T07:33:55.904Z,14.93
2019-04-27T07:36:32.129Z,14.03
2019-04-27T07:39:11.181Z,13.87
2019-04-27T07:41:48.495Z,14.73
2019-04-27T07:44:26.202Z,14.23
2019-04-27T07:47:16.066Z,15.70
2019-04-27T07:49:52.316Z,16.17
2019-04-27T07:52:28.742Z,14.07
2019-04-27T07:55:05.844Z,13.60
2019-04-27T07:57:42.073Z,14.27
2019-04-27T08:00:19.986Z,14.43
2019-04-27T08:02:56.210Z,15.13
2019-04-27T08:05:32.560Z,15.23
2019-04-27T08:08:08.993Z,13.60
2019-04-27T08:10:47.577Z,14.20
2019-04-27T08:13:23.239Z,14.70
2019-04-27T08:15:59.497Z,14.23
2019-04-27T08:18:35.641Z,13.80
2019-04-27T08:21:11.913Z,12.50
2019-04-27T08:23:49.010Z,14.70
2019-04-27T08:26:28.654Z,15.00
2019-04-27T08:29:06.584Z,14.97
2019-04-27T08:32:00.738Z,13.60
2019-04-27T08:34:39.736Z,14.00
2019-04-27T08:37:16.267Z,15.07
2019-04-27T08:39:52.486Z,12.87
2019-04-27T08:42:29.353Z,12.63
2019-04-27T08:45:06.888Z,13.33
2019-04-27T08:47:43.040Z,13.33
2019-04-27T08:50:19.320Z,12.73
2019-04-27T08:52:55.527Z,12.83
2019-04-27T08:55:31.713Z,11.90
2019-04-27T08:58:09.846Z,10.93
2019-04-27T09:00:45.728Z,12.70
2019-04-27T09:03:21.869Z,16.27
2019-04-27T09:05:59.126Z,11.87
2019-04-27T09:08:39.002Z,12.03
2019-04-27T09:11:20.627Z,10.80
2019-04-27T09:13:59.022Z,9.57
2019-04-27T09:16:38.827Z,9.03
2019-04-27T09:19:34.684Z,8.07
2019-04-27T09:22:16.143Z,8.20
2019-04-27T09:24:49.472Z,7.37
2019-04-27T09:27:25.736Z,6.73
2019-04-27T09:30:01.985Z,7.97
2019-04-27T09:32:38.447Z,8.87
2019-04-27T09:35:16.218Z,8.13
2019-04-27T09:37:52.390Z,8.60
2019-04-27T09:40:28.584Z,6.07
2019-04-27T09:43:04.814Z,6.70
2019-04-27T09:45:41.467Z,6.50
2019-04-27T09:48:17.727Z,6.73
2019-04-27T09:50:55.797Z,5.87
2019-04-27T09:53:31.790Z,6.30
2019-04-27T09:56:08.042Z,6.57
2019-04-27T09:58:44.314Z,7.37
2019-04-27T10:01:20.522Z,7.13
2019-04-27T10:03:56.906Z,6.53
2019-04-27T10:06:33.102Z,6.70
2019-04-27T10:09:09.352Z,6.47
2019-04-27T10:11:45.525Z,6.40
2019-04-27T10:14:21.777Z,6.37
2019-04-27T10:16:57.995Z,6.23
2019-04-27T10:19:34.246Z,6.83
2019-04-27T10:22:10.473Z,13.10
2019-04-27T10:24:46.714Z,8.17
2019-04-27T10:27:22.919Z,7.90
2019-04-27T10:29:59.103Z,7.10
2019-04-27T10:32:36.132Z,6.70
2019-04-27T10:35:12.607Z,7.10
2019-04-27T10:37:48.753Z,7.70
2019-04-27T10:40:26.392Z,6.97
2019-04-27T10:43:02.630Z,7.60
2019-04-27T10:45:38.868Z,7.53
2019-04-27T10:48:16.341Z,6.63
2019-04-27T10:50:52.958Z,8.03
2019-04-27T10:53:29.173Z,7.37
2019-04-27T10:56:05.433Z,7.07
2019-04-27T10:58:41.638Z,7.70
2019-04-27T11:01:17.893Z,7.03
2019-04-27T11:04:07.608Z,7.60
2019-04-27T11:06:47.902Z,7.37
2019-04-27T11:09:25.662Z,7.40
2019-04-27T11:12:01.973Z,8.40
2019-04-27T11:14:38.186Z,7.97
2019-04-27T11:17:16.296Z,9.00
2019-04-27T11:19:52.750Z,9.40
2019-04-27T11:22:29.084Z,9.70
2019-04-27T11:25:07.998Z,8.87
2019-04-27T11:27:44.243Z,9.47
2019-04-27T11:30:20.859Z,9.40
2019-04-27T11:32:59.251Z,10.07
2019-04-27T11:35:42.317Z,9.97
2019-04-27T11:38:18.544Z,10.53
2019-04-27T11:40:56.540Z,11.00
2019-04-27T11:43:32.817Z,10.50
2019-04-27T11:46:09.169Z,9.90
2019-04-27T11:48:46.571Z,10.37
2019-04-27T11:51:23.002Z,10.73
2019-04-27T11:53:59.387Z,10.43
2019-04-27T11:56:36.201Z,10.00
2019-04-27T11:59:12.598Z,9.73
2019-04-27T12:01:48.784Z,10.47
2019-04-27T12:04:26.287Z,9.67
2019-04-27T12:07:02.715Z,8.30
2019-04-27T12:09:38.938Z,8.00
2019-04-27T12:12:18.224Z,7.63
2019-04-27T12:14:53.050Z,10.20
2019-04-27T12:17:29.357Z,23.50
2019-04-27T12:20:09.374Z,12.43
2019-04-27T12:22:45.653Z,6.13
2019-04-27T12:25:24.426Z,6.10
2019-04-27T12:28:18.626Z,5.53
2019-04-27T12:30:59.433Z,5.13
2019-04-27T12:33:35.851Z,4.70
2019-04-27T12:36:12.203Z,5.23
2019-04-27T12:38:48.480Z,5.27
2019-04-27T12:41:24.723Z,5.67
2019-04-27T12:44:00.944Z,5.67
2019-04-27T12:46:37.154Z,5.50
2019-04-27T12:49:13.365Z,5.90
2019-04-27T12:51:49.626Z,5.73
2019-04-27T12:54:27.486Z,6.30
2019-04-27T12:57:06.024Z,5.90
2019-04-27T12:59:56.641Z,6.20
2019-04-27T13:02:34.541Z,5.90
2019-04-27T13:05:11.814Z,6.20
2019-04-27T13:07:48.029Z,6.30
2019-04-27T13:10:24.505Z,6.50
2019-04-27T13:13:00.741Z,6.37
2019-04-27T13:15:37.286Z,6.30
2019-04-27T13:18:13.541Z,6.10
2019-04-27T13:20:49.786Z,6.23
2019-04-27T13:23:26.039Z,6.60
2019-04-27T13:26:02.236Z,6.40
2019-04-27T13:28:38.433Z,6.67
2019-04-27T13:31:15.647Z,6.30
2019-04-27T13:33:51.929Z,6.30
2019-04-27T13:36:28.150Z,19.27
2019-04-27T13:39:06.328Z,20.13
2019-04-27T13:41:42.721Z,7.90
2019-04-27T13:44:18.986Z,7.50
2019-04-27T13:47:12.120Z,7.80
2019-04-27T13:49:52.967Z,7.10
2019-04-27T13:52:30.004Z,6.73
2019-04-27T13:55:07.300Z,6.37
2019-04-27T13:57:50.158Z,5.60
2019-04-27T14:00:21.492Z,5.83
2019-04-27T14:02:57.729Z,5.87
2019-04-27T14:05:34.067Z,6.17
2019-04-27T14:08:10.384Z,5.03
2019-04-27T14:10:46.611Z,5.67
2019-04-27T14:13:22.806Z,6.00
2019-04-27T14:15:59.089Z,5.90
2019-04-27T14:18:35.255Z,5.70
2019-04-27T14:21:11.454Z,22.87
2019-04-27T14:23:48.492Z,7.30
2019-04-27T14:26:25.012Z,5.73
2019-04-27T14:29:01.237Z,6.67
2019-04-27T14:31:39.378Z,6.47
2019-04-27T14:34:15.348Z,6.13
2019-04-27T14:36:51.631Z,7.03
2019-04-27T14:39:28.572Z,6.50
2019-04-27T14:42:04.835Z,5.70
2019-04-27T14:44:41.164Z,6.70
2019-04-27T14:47:18.762Z,6.20
2019-04-27T14:49:55.242Z,6.07
2019-04-27T14:52:31.514Z,5.53
2019-04-27T14:55:08.743Z,5.93
2019-04-27T14:57:45.030Z,6.03
2019-04-27T15:00:22.584Z,6.47
2019-04-27T15:02:59.192Z,6.43
2019-04-27T15:05:35.542Z,7.67
2019-04-27T15:08:11.896Z,6.33
2019-04-27T15:10:48.049Z,5.90
2019-04-27T15:13:24.321Z,5.47
2019-04-27T15:16:02.679Z,5.17
2019-04-27T15:18:43.646Z,4.97
2019-04-27T15:21:20.260Z,5.07
2019-04-27T15:23:56.755Z,2.40
2019-04-27T15:26:32.989Z,2.10
2019-04-27T15:29:12.131Z,3.00
2019-04-27T15:31:49.978Z,1.50
2019-04-27T15:34:32.553Z,1.33
2019-04-27T15:37:13.078Z,1.00
2019-04-27T15:40:04.231Z,0.90
2019-04-27T15:42:41.563Z,1.10
2019-04-27T15:45:20.565Z,2.77
2019-04-27T15:47:55.036Z,2.00
2019-04-27T15:50:32.364Z,1.33
2019-04-27T15:53:12.430Z,1.00
2019-04-27T15:55:46.622Z,1.53
2019-04-27T15:58:25.113Z,1.50
2019-04-27T16:01:05.951Z,1.90
2019-04-27T16:03:38.966Z,1.60
2019-04-27T16:06:15.350Z,1.20
2019-04-27T16:08:51.595Z,1.50
2019-04-27T16:11:27.814Z,2.63
2019-04-27T16:14:06.742Z,1.27
2019-04-27T16:16:41.978Z,1.60
2019-04-27T16:19:18.482Z,1.50
2019-04-27T16:21:54.870Z,1.90
2019-04-27T16:24:31.027Z,1.40
2019-04-27T16:27:07.157Z,1.60
2019-04-27T16:29:43.323Z,1.33
2019-04-27T16:32:19.634Z,1.47
2019-04-27T16:34:55.853Z,2.20
2019-04-27T16:37:42.936Z,2.60
2019-04-27T16:40:24.528Z,3.63
2019-04-27T16:42:58.470Z,2.77
2019-04-27T16:45:34.789Z,1.70
2019-04-27T16:48:10.995Z,5.17
2019-04-27T16:50:47.245Z,6.83
2019-04-27T16:53:23.324Z,2.83
2019-04-27T16:58:49.010Z,8.17
2019-04-27T17:01:25.953Z,3.33
2019-04-27T17:04:02.156Z,3.87
2019-04-27T17:06:39.190Z,7.73
2019-04-27T17:09:18.729Z,4.63
2019-04-27T17:11:54.200Z,3.10
2019-04-27T17:12:40.185Z,3.27
2019-04-27T17:14:36.524Z,4.00
2019-04-27T17:17:17.852Z,3.07
2019-04-27T17:19:58.150Z,3.73
2019-04-27T17:22:34.413Z,2.63
2019-04-27T17:25:11.067Z,2.50
2019-04-27T17:27:49.019Z,2.17
2019-04-27T17:30:25.255Z,2.37
2019-04-27T17:33:10.952Z,3.30
2019-04-27T17:35:43.716Z,3.20
2019-04-27T17:38:19.902Z,2.67
2019-04-27T17:40:56.050Z,2.70
2019-04-27T17:43:32.277Z,3.07
2019-04-27T17:46:11.555Z,3.43
2019-04-27T17:48:46.344Z,3.10
2019-04-27T17:51:22.522Z,3.07
2019-04-27T17:53:58.778Z,3.60
2019-04-27T17:56:36.337Z,3.23
2019-04-27T17:59:17.387Z,3.00
2019-04-27T18:01:53.842Z,3.03
2019-04-27T18:04:28.855Z,3.00
2019-04-27T18:07:05.074Z,3.20
2019-04-27T18:09:43.627Z,3.17
2019-04-27T18:12:19.152Z,3.20
2019-04-27T18:14:55.295Z,3.20
2019-04-27T18:17:32.508Z,3.40
2019-04-27T18:20:11.827Z,2.80
2019-04-27T18:23:01.825Z,3.23
2019-04-27T18:25:43.390Z,3.33
2019-04-27T18:28:19.210Z,3.57
2019-04-27T18:30:59.974Z,3.70
2019-04-27T18:33:37.281Z,3.13
2019-04-27T18:36:14.523Z,3.50
2019-04-27T18:38:50.883Z,5.03
2019-04-27T18:41:28.679Z,4.00
2019-04-27T18:44:05.026Z,3.17
2019-04-27T18:46:41.301Z,3.83
2019-04-27T18:49:35.620Z,4.10
2019-04-27T18:52:13.505Z,4.13
2019-04-27T18:54:49.727Z,3.90
2019-04-27T18:57:25.965Z,4.83
2019-04-27T19:00:02.173Z,4.67
2019-04-27T19:02:39.211Z,4.47
2019-04-27T19:05:15.538Z,4.43
2019-04-27T19:07:51.725Z,4.27
2019-04-27T19:10:28.218Z,4.67
2019-04-27T19:13:04.488Z,4.87
2019-04-27T19:15:40.696Z,4.80
2019-04-27T19:18:18.700Z,4.80
2019-04-27T19:20:54.824Z,5.03
2019-04-27T19:23:31.002Z,4.53
2019-04-27T19:26:14.551Z,4.63
2019-04-27T19:28:55.342Z,4.73
2019-04-27T19:31:33.193Z,5.50
2019-04-27T19:34:09.359Z,4.80
2019-04-27T19:36:45.616Z,5.07
2019-04-27T19:39:21.816Z,5.23
2019-04-27T19:42:03.494Z,5.37
2019-04-27T19:44:35.806Z,5.10
2019-04-27T19:47:12.011Z,5.57
2019-04-27T19:49:48.168Z,5.30
2019-04-27T19:52:24.402Z,5.37
2019-04-27T19:55:00.638Z,6.67
2019-04-27T19:57:39.324Z,5.30
2019-04-27T20:00:16.709Z,5.27
2019-04-27T20:02:52.929Z,5.67
2019-04-27T20:05:31.238Z,5.57
2019-04-27T20:08:09.093Z,6.17
2019-04-27T20:10:45.256Z,6.47
2019-04-27T20:13:22.010Z,5.53
2019-04-27T20:15:58.499Z,6.00
2019-04-27T20:18:34.748Z,5.97
2019-04-27T20:21:12.359Z,6.00
2019-04-27T20:23:48.626Z,6.37
2019-04-27T20:26:24.883Z,6.37
2019-04-27T20:29:01.523Z,6.23
2019-04-27T20:31:37.836Z,6.23
2019-04-27T20:34:14.026Z,6.00
2019-04-27T20:36:51.070Z,6.30
2019-04-27T20:39:28.025Z,5.50
2019-04-27T20:42:04.187Z,5.87
2019-04-27T20:44:41.247Z,5.80
2019-04-27T20:47:17.665Z,5.73
2019-04-27T20:49:53.827Z,6.47
2019-04-27T20:52:43.460Z,6.70
2019-04-27T20:55:21.387Z,7.23
2019-04-27T20:58:02.348Z,7.00
2019-04-27T21:00:35.672Z,7.23
2019-04-27T21:03:16.150Z,7.17
2019-04-27T21:05:56.769Z,8.23
2019-04-27T21:08:34.475Z,7.97
2019-04-27T21:11:11.832Z,7.70
2019-04-27T21:13:48.156Z,8.67
2019-04-27T21:16:24.391Z,8.17
2019-04-27T21:19:01.777Z,8.13
2019-04-27T21:21:40.708Z,9.27
2019-04-27T21:24:17.220Z,8.60
2019-04-27T21:26:53.383Z,9.03
2019-04-27T21:29:31.149Z,8.63
2019-04-27T21:32:08.018Z,8.63
2019-04-27T21:34:44.276Z,8.73
2019-04-27T21:37:20.404Z,9.10
2019-04-27T21:40:14.462Z,9.30
2019-04-27T21:42:51.337Z,9.30
2019-04-27T21:45:27.636Z,9.83
2019-04-27T21:48:03.887Z,9.87
2019-04-27T21:50:41.284Z,16.50
2019-04-27T21:53:28.395Z,10.00
2019-04-27T21:56:06.245Z,8.77
2019-04-27T21:58:42.555Z,9.37
2019-04-27T22:01:27.670Z,8.47
2019-04-27T22:04:04.139Z,8.20
2019-04-27T22:06:40.907Z,7.93
2019-04-27T22:09:17.214Z,8.27
2019-04-27T22:11:53.444Z,7.53
2019-04-27T22:14:29.574Z,7.33
2019-04-27T22:17:06.179Z,7.53
2019-04-27T22:19:42.400Z,7.77
2019-04-27T22:22:26.107Z,7.33
2019-04-27T22:25:06.895Z,7.63
2019-04-27T22:27:43.053Z,7.37
2019-04-27T22:30:21.043Z,7.13
2019-04-27T22:32:57.312Z,6.97
2019-04-27T22:35:33.460Z,8.03
2019-04-27T22:38:11.970Z,8.13
2019-04-27T22:41:02.179Z,7.17
2019-04-27T22:43:43.307Z,7.30
2019-04-27T22:46:21.738Z,6.87
2019-04-27T22:48:58.188Z,7.67
2019-04-27T22:51:34.395Z,7.13
2019-04-27T22:54:11.603Z,6.93
2019-04-27T22:56:50.914Z,6.57
2019-04-27T22:59:28.940Z,6.90
2019-04-27T23:02:12.414Z,6.47
2019-04-27T23:04:52.929Z,6.93
2019-04-27T23:07:29.177Z,7.17
2019-04-27T23:10:07.174Z,7.80
2019-04-27T23:12:43.423Z,6.90
2019-04-27T23:15:21.283Z,8.00
2019-04-27T23:17:57.902Z,7.03
2019-04-27T23:20:34.184Z,7.30
2019-04-27T23:23:11.357Z,7.77
2019-04-27T23:25:47.566Z,7.33
2019-04-27T23:28:23.741Z,8.43
2019-04-27T23:31:02.471Z,8.30
2019-04-27T23:33:42.150Z,8.70
2019-04-27T23:36:18.495Z,9.00
2019-04-27T23:38:54.674Z,9.23
2019-04-27T23:41:30.928Z,9.17
2019-04-27T23:44:07.137Z,9.90
2019-04-27T23:46:43.313Z,9.23
2019-04-27T23:49:19.455Z,9.80
2019-04-27T23:51:57.264Z,9.33
2019-04-27T23:54:33.406Z,9.90
2019-04-27T23:57:09.504Z,10.53
2019-04-27T23:59:45.728Z,10.00
